createdAt,value
2023-05-09T00:01:56.508Z,19.40
2023-05-09T00:06:59.488Z,19.40
2023-05-09T00:12:02.562Z,19.40
2023-05-09T00:17:06.808Z,19.40
2023-05-09T00:22:10.135Z,19.30
2023-05-09T00:27:33.150Z,19.20
2023-05-09T00:32:37.473Z,19.10
2023-05-09T00:37:40.441Z,19.10
2023-05-09T00:42:43.642Z,19.10
2023-05-09T00:47:47.961Z,19.20
2023-05-09T00:52:51.809Z,19.20
2023-05-09T00:57:54.669Z,19.20
2023-05-09T01:02:59.091Z,19.10
2023-05-09T01:08:08.435Z,18.90
2023-05-09T01:13:16.852Z,19.00
2023-05-09T01:18:31.147Z,19.10
2023-05-09T01:24:00.429Z,19.10
2023-05-09T01:29:37.294Z,19.20
2023-05-09T01:34:44.094Z,19.10
2023-05-09T01:39:50.748Z,19.10
2023-05-09T01:44:55.804Z,19.10
2023-05-09T01:49:59.203Z,19.10
2023-05-09T01:55:03.338Z,19.00
2023-05-09T02:00:10.552Z,18.90
2023-05-09T02:05:17.770Z,19.00
2023-05-09T02:10:21.787Z,19.00
2023-05-09T02:15:26.474Z,19.00
2023-05-09T02:20:29.362Z,19.10
2023-05-09T02:25:34.136Z,19.10
2023-05-09T02:30:43.711Z,19.10
2023-05-09T02:35:47.644Z,19.00
2023-05-09T02:40:52.636Z,19.00
2023-05-09T02:45:57.035Z,18.60
2023-05-09T02:51:00.052Z,18.70
2023-05-09T02:56:03.918Z,18.70
2023-05-09T03:01:08.305Z,18.60
2023-05-09T03:06:11.305Z,18.60
2023-05-09T03:11:14.358Z,18.50
2023-05-09T03:16:21.039Z,18.70
2023-05-09T03:21:24.267Z,18.80
2023-05-09T03:26:27.366Z,18.80
2023-05-09T03:31:32.866Z,18.80
2023-05-09T03:36:35.874Z,18.90
2023-05-09T03:41:40.064Z,18.90
2023-05-09T03:46:45.747Z,19.00
2023-05-09T03:51:49.180Z,19.00
2023-05-09T03:56:53.000Z,18.90
2023-05-09T04:01:57.400Z,18.90
2023-05-09T04:07:02.956Z,18.80
2023-05-09T04:12:06.593Z,18.70
2023-05-09T04:17:11.048Z,18.80
2023-05-09T04:22:14.392Z,18.90
2023-05-09T04:27:17.615Z,18.90
2023-05-09T04:32:23.325Z,18.90
2023-05-09T04:37:27.022Z,18.90
2023-05-09T04:42:33.403Z,19.00
2023-05-09T04:47:38.420Z,19.00
2023-05-09T04:52:41.442Z,19.00
2023-05-09T04:57:44.708Z,19.10
2023-05-09T05:02:49.039Z,18.90
2023-05-09T05:07:53.390Z,19.00
2023-05-09T05:12:59.015Z,19.10
2023-05-09T05:18:03.440Z,19.20
2023-05-09T05:23:10.610Z,19.10
2023-05-09T05:28:14.038Z,19.20
2023-05-09T05:33:19.044Z,19.20
2023-05-09T05:38:22.386Z,19.20
2023-05-09T05:43:29.548Z,19.30
2023-05-09T05:48:34.326Z,19.30
2023-05-09T05:53:37.307Z,19.30
2023-05-09T05:58:40.520Z,19.20
2023-05-09T06:03:45.447Z,19.30
2023-05-09T06:08:49.791Z,19.20
2023-05-09T06:13:52.680Z,19.20
2023-05-09T06:18:57.128Z,19.40
2023-05-09T06:24:14.195Z,19.30
2023-05-09T06:29:23.883Z,19.40
2023-05-09T06:34:28.105Z,19.50
2023-05-09T06:39:30.976Z,19.50
2023-05-09T06:44:33.918Z,19.40
2023-05-09T06:49:38.135Z,19.40
2023-05-09T06:54:41.011Z,19.40
2023-05-09T06:59:44.810Z,19.40
2023-05-09T07:04:49.303Z,19.30
2023-05-09T07:09:55.202Z,19.40
2023-05-09T07:15:03.728Z,19.40
2023-05-09T07:20:09.254Z,19.40
2023-05-09T07:25:12.180Z,19.40
2023-05-09T07:30:15.773Z,19.60
2023-05-09T07:35:20.954Z,19.80
2023-05-09T07:40:23.853Z,19.90
2023-05-09T07:45:26.931Z,19.90
2023-05-09T07:50:31.438Z,20.10
2023-05-09T07:55:34.296Z,20.50
2023-05-09T08:00:37.445Z,20.60
2023-05-09T08:05:41.775Z,20.60
2023-05-09T08:10:45.803Z,20.40
2023-05-09T08:15:48.728Z,20.40
2023-05-09T08:20:52.979Z,20.40
2023-05-09T08:25:56.172Z,20.40
2023-05-09T08:30:59.133Z,20.30
2023-05-09T08:36:03.540Z,20.40
2023-05-09T08:41:06.475Z,20.50
2023-05-09T08:46:11.453Z,20.90
2023-05-09T08:51:17.906Z,21.00
2023-05-09T08:56:21.484Z,21.10
2023-05-09T09:01:26.733Z,21.10
2023-05-09T09:06:32.169Z,21.30
2023-05-09T09:11:36.401Z,21.40
2023-05-09T09:16:41.287Z,21.50
2023-05-09T09:21:47.797Z,21.50
2023-05-09T09:26:52.242Z,21.50
2023-05-09T09:31:55.912Z,21.50
2023-05-09T09:37:00.834Z,21.70
2023-05-09T09:42:11.799Z,21.80
2023-05-09T09:47:14.671Z,22.00
2023-05-09T09:52:26.941Z,22.30
2023-05-09T09:57:45.774Z,22.10
2023-05-09T10:02:50.453Z,22.30
2023-05-09T10:07:58.806Z,22.10
2023-05-09T10:13:04.192Z,21.70
2023-05-09T10:18:09.057Z,21.80
2023-05-09T10:23:15.228Z,21.80
2023-05-09T10:28:23.708Z,21.60
2023-05-09T10:33:31.772Z,21.60
2023-05-09T10:38:36.854Z,21.60
2023-05-09T10:43:40.392Z,21.60
2023-05-09T10:48:44.826Z,21.60
2023-05-09T10:53:50.396Z,21.80
2023-05-09T10:58:54.510Z,21.80
2023-05-09T11:03:58.815Z,21.70
2023-05-09T11:09:25.816Z,21.90
2023-05-09T11:14:40.677Z,21.90
2023-05-09T11:20:01.251Z,22.10
2023-05-09T11:25:07.306Z,22.00
2023-05-09T11:30:12.251Z,22.00
2023-05-09T11:35:17.516Z,22.20
2023-05-09T11:40:23.278Z,22.20
2023-05-09T11:45:30.675Z,22.30
2023-05-09T11:50:33.667Z,22.50
2023-05-09T11:55:39.078Z,22.40
2023-05-09T12:00:45.938Z,22.50
2023-05-09T12:05:49.424Z,22.60
2023-05-09T12:10:53.658Z,22.80
2023-05-09T12:16:01.720Z,22.70
2023-05-09T12:21:07.124Z,22.80
2023-05-09T12:26:11.662Z,22.80
2023-05-09T12:31:14.708Z,22.60
2023-05-09T12:36:17.604Z,22.40
2023-05-09T12:41:36.883Z,22.50
2023-05-09T12:46:40.211Z,22.80
2023-05-09T12:51:50.011Z,22.90
2023-05-09T12:56:56.728Z,23.00
2023-05-09T13:02:01.909Z,23.20
2023-05-09T13:07:10.288Z,23.40
2023-05-09T13:12:14.670Z,23.30
2023-05-09T13:17:17.528Z,23.40
2023-05-09T13:22:21.086Z,23.50
2023-05-09T13:27:25.658Z,23.40
2023-05-09T13:32:28.770Z,23.20
2023-05-09T13:37:31.666Z,23.20
2023-05-09T13:42:35.977Z,23.30
2023-05-09T13:47:39.030Z,23.30
2023-05-09T13:52:42.017Z,23.50
2023-05-09T13:57:46.254Z,23.50
2023-05-09T14:02:55.356Z,23.50
2023-05-09T14:07:58.251Z,23.60
2023-05-09T14:13:02.564Z,23.60
2023-05-09T14:18:05.657Z,23.70
2023-05-09T14:23:08.719Z,23.80
2023-05-09T14:28:17.530Z,23.80
2023-05-09T14:33:20.528Z,23.60
2023-05-09T14:38:23.394Z,23.60
2023-05-09T14:43:28.037Z,23.40
2023-05-09T14:48:30.988Z,23.50
2023-05-09T14:53:35.451Z,23.60
2023-05-09T14:58:39.922Z,23.50
2023-05-09T15:03:42.999Z,23.50
2023-05-09T15:08:46.016Z,23.30
2023-05-09T15:13:51.561Z,23.30
2023-05-09T15:18:54.439Z,23.10
2023-05-09T15:23:58.201Z,23.20
2023-05-09T15:29:06.411Z,23.10
2023-05-09T15:34:09.330Z,23.00
2023-05-09T15:39:13.381Z,22.80
2023-05-09T15:44:17.817Z,22.80
2023-05-09T15:49:21.979Z,22.70
2023-05-09T15:54:27.602Z,22.50
2023-05-09T15:59:31.938Z,22.30
2023-05-09T16:04:34.866Z,22.20
2023-05-09T16:09:38.826Z,22.30
2023-05-09T16:14:43.096Z,22.10
2023-05-09T16:19:47.215Z,22.10
2023-05-09T16:24:50.148Z,21.70
2023-05-09T16:29:58.579Z,21.60
2023-05-09T16:35:01.502Z,21.30
2023-05-09T16:40:05.360Z,21.10
2023-05-09T16:45:10.304Z,21.10
2023-05-09T16:50:13.396Z,20.90
2023-05-09T16:55:16.507Z,20.90
2023-05-09T17:00:22.137Z,20.60
2023-05-09T17:05:25.327Z,20.30
2023-05-09T17:10:37.806Z,20.30
2023-05-09T17:15:42.863Z,20.30
2023-05-09T17:21:08.822Z,20.40
2023-05-09T17:26:11.866Z,20.20
2023-05-09T17:31:16.383Z,20.30
2023-05-09T17:36:19.425Z,20.10
2023-05-09T17:41:22.415Z,20.10
2023-05-09T17:46:27.295Z,20.10
2023-05-09T17:51:30.520Z,20.10
2023-05-09T17:56:33.924Z,20.10
2023-05-09T18:01:38.666Z,20.20
2023-05-09T18:06:41.962Z,20.30
2023-05-09T18:11:45.619Z,20.20
2023-05-09T18:16:51.685Z,20.30
2023-05-09T18:21:55.304Z,20.20
2023-05-09T18:27:10.817Z,20.20
2023-05-09T18:32:17.797Z,20.20
2023-05-09T18:37:22.929Z,20.10
2023-05-09T18:42:28.787Z,20.00
2023-05-09T18:47:36.678Z,20.00
2023-05-09T18:52:45.962Z,19.70
2023-05-09T18:57:49.463Z,19.60
2023-05-09T19:02:54.120Z,19.40
2023-05-09T19:08:06.574Z,19.30
2023-05-09T19:13:09.700Z,19.10
2023-05-09T19:18:14.258Z,19.30
2023-05-09T19:23:17.245Z,19.40
2023-05-09T19:28:20.119Z,19.30
2023-05-09T19:33:25.024Z,19.20
2023-05-09T19:38:28.247Z,19.00
2023-05-09T19:43:31.128Z,19.00
2023-05-09T19:48:44.235Z,19.10
2023-05-09T19:53:47.597Z,19.10
2023-05-09T19:58:50.528Z,18.90
2023-05-09T20:03:56.685Z,18.90
2023-05-09T20:09:01.003Z,18.80
2023-05-09T20:14:03.870Z,18.70
2023-05-09T20:19:08.162Z,18.70
2023-05-09T20:24:11.750Z,18.80
2023-05-09T20:29:14.737Z,18.90
2023-05-09T20:34:20.891Z,18.80
2023-05-09T20:39:24.762Z,18.80
2023-05-09T20:44:27.699Z,18.70
2023-05-09T20:49:31.937Z,18.80
2023-05-09T20:54:34.800Z,18.40
2023-05-09T20:59:37.656Z,18.40
2023-05-09T21:04:42.015Z,18.20
2023-05-09T21:09:44.877Z,18.10
2023-05-09T21:14:49.022Z,18.10
2023-05-09T21:19:53.249Z,18.00
2023-05-09T21:24:56.127Z,17.90
2023-05-09T21:29:59.334Z,18.00
2023-05-09T21:35:04.196Z,17.90
2023-05-09T21:40:11.067Z,17.70
2023-05-09T21:45:13.984Z,17.70
2023-05-09T21:50:18.429Z,17.60
2023-05-09T21:55:21.514Z,17.50
2023-05-09T22:00:24.772Z,17.40
2023-05-09T22:05:29.044Z,17.40
2023-05-09T22:10:32.388Z,17.40
2023-05-09T22:15:35.271Z,17.30
2023-05-09T22:20:39.528Z,17.30
2023-05-09T22:25:42.417Z,17.20
2023-05-09T22:30:45.390Z,17.00
2023-05-09T22:35:49.623Z,16.80
2023-05-09T22:40:52.606Z,16.70
2023-05-09T22:45:55.503Z,16.90
2023-05-09T22:50:59.758Z,16.70
2023-05-09T22:56:02.810Z,16.70
2023-05-09T23:01:05.817Z,16.60
2023-05-09T23:06:10.192Z,16.90
2023-05-09T23:11:13.087Z,17.10
2023-05-09T23:16:16.373Z,17.30
2023-05-09T23:21:20.015Z,17.20
2023-05-09T23:26:24.262Z,17.20
2023-05-09T23:31:27.176Z,17.30
2023-05-09T23:36:30.219Z,17.30
2023-05-09T23:41:34.506Z,17.40
2023-05-09T23:46:37.457Z,17.40
2023-05-09T23:51:40.410Z,17.30
2023-05-09T23:56:44.705Z,17.40
